Nyala, Nevada Weather observations

Data are for observation ending at time listed.
 Day   Time    Ave.   Ave.  Ave.  Vector   Max.   Stn.    Total    Solar   Ave.  
  of    of     Air    Rel.  Wind   Wind    Wind   Baro.  Precip.   Rad.    Soil  
Year   Day     Temp.  Hum.  Speed  Dir.    Gust   Pres.                    Temp. 
2015   (PST)    F      %     mph   deg.    mph     mb.     in.     W/m2     F   
------------------------------------------------------------------------------
 242    7:00   68.9    31    2.1    53      5.6    851     0.00      93    78.4
 242    8:00   76.8    26    6.9   228     21.0    851     0.00     168    77.8
 242    9:00   79.1    25   13.7   219     22.6    851     0.00     248    77.9
 242   10:00   82.4    21   12.6   212     24.0    851     0.00     309    78.5
 242   11:00   84.6    20   14.3   216     24.9    851     0.00     376    79.5
 242   12:00   86.6    19   13.0   214     25.1    850     0.00     397    80.8
 242   13:00   87.9    17   14.9   207     28.0    850     0.00     412    83.3
 242   14:00   87.7    18   13.4   206     27.5    850     0.00     349    86.2
 242   15:00   88.9    17   10.9   191     23.7    849     0.00     273    88.6
 242   16:00   88.8    16    8.3   214     26.5    849     0.00     229    90.4
 242   17:00   86.6    18    8.8   210     16.7    848     0.00     113    91.6
 242   18:00   83.8    19    8.7   239     16.6    848     0.00      48    91.9
 242   19:00   75.3    23    5.8   195      8.4    848     0.00       2    91.2
 242   20:00   75.5    18    5.9   164     12.6    849     0.00       0    89.5
 242   21:00   75.7    17    6.1   157     12.5    849     0.00       0    87.6
 242   22:00   72.1    18    2.1    68      7.0    850     0.00       0    85.9
 242   23:00   69.8    19    3.0    78      8.6    851     0.00       0    84.5
 243    0:00   72.8    16    4.0    45      8.9    851     0.00       0    83.1
 243    1:00   70.1    17    3.3    57      7.5    852     0.00       0    81.9
 243    2:00   65.5    25    1.9   162      5.2    851     0.00       0    80.9
 243    3:00   58.5    36    3.3   179      6.1    852     0.00       0    79.8
 243    4:00   56.8    37    1.9   164      4.4    852     0.00       0    78.7
 243    5:00   56.6    31    2.4   126      5.2    852     0.00       0    77.5
 243    6:00   54.0    40    2.1   153      4.7    852     0.00       6    76.4

Return to Nyala, Nevada graphs page.


Western Regional Climate Center,wrcc@dri.edu